Sovereign — 9HUE9 — position and weather

sailwx.info

Track history (hours):
 
Tides and Currents Weather Stations Pressure Air Temp Water Temp Dewpoint Dewpoint Depression Visibility Wind Speed Wind Dir Waves Ship Positions

Sovereign

Last reported at 2017-Apr-24 20:32 UTC. Time now 2017-Apr-25 12:31 UTC.
Position N 40°42' E 013°25'.

Length 269 m; draft 7.8 m.

Type: Passenger vessel. MMSI: 249539000.

Date/timePositionNaut miles runAvg speedWind from/ knotsBaromVisibWave heightAir tempDewpointWater temp
2017-Apr-24 20:32N 40°42' E 013°25'014.2
2017-Apr-24 20:30N 40°42' E 013°26'714.2
2017-Apr-24 20:00N 40°40' E 013°35'814.3
2017-Apr-24 19:28N 40°38' E 013°45'714.5
2017-Apr-24 19:00N 40°38' E 013°54'21 2.7
2017-Apr-24 11:21N 40°50' E 014°15'42212.0
2017-Apr-23 00:06N 41°18' E 004°57'4916.8
2017-Apr-22 21:12N 41°17' E 003°52'1416.5
2017-Apr-22 20:23N 41°17' E 003°34'1816.5
2017-Apr-22 19:18N 41°17' E 003°10'1616.5
2017-Apr-22 18:19N 41°17' E 002°49'516.4
2017-Apr-22 18:00N 41°16' E 002°42'916.4
2017-Apr-22 17:28N 41°15' E 002°31'816.5
2017-Apr-22 17:00N 41°15' E 002°20'814.5
2017-Apr-22 16:28N 41°17' E 002°11'4 9.0
2017-Apr-22 16:00N 41°22' E 002°11'0 0.2
2017-Apr-22 15:29N 41°22' E 002°11'0 0.0
2017-Apr-22 14:14N 41°22' E 002°11'0 0.0
2017-Apr-22 13:14N 41°22' E 002°11'0 0.0
2017-Apr-22 12:59N 41°22' E 002°11'0 0.0
2017-Apr-22 12:29N 41°22' E 002°11'0 0.0
2017-Apr-22 11:59N 41°22' E 002°11'0 0.0
2017-Apr-22 11:26N 41°22' E 002°11'0 0.0
2017-Apr-22 10:47N 41°22' E 002°11'0 0.0
2017-Apr-22 09:44N 41°22' E 002°11'0 0.0
2017-Apr-22 07:02N 41°22' E 002°11'0 0.1
2017-Apr-22 06:48N 41°22' E 002°11'0 0.3
2017-Apr-22 06:30N 41°22' E 002°11'5 6.7
2017-Apr-22 05:43N 41°17' E 002°12'414.8
2017-Apr-22 05:26N 41°16' E 002°17'716.0
2017-Apr-22 04:59N 41°17' E 002°27'1215.3
2017-Apr-22 04:14N 41°21' E 002°41'4314.3
2017-Apr-22 01:12N 41°44' E 003°30'414.6
2017-Apr-22 00:54N 41°47' E 003°35'3213.9
2017-Apr-21 22:35N 42°05' E 004°10'3313.8
2017-Apr-21 20:11N 42°24' E 004°47'3215.8
2017-Apr-21 18:11N 42°42' E 005°22'3414.2
2017-Apr-21 15:48N 43°05' E 005°56'2 6.3
2017-Apr-21 15:30N 43°06' E 005°54'0 0.3
2017-Apr-21 14:57N 43°06' E 005°54'0 0.0
2017-Apr-21 14:27N 43°06' E 005°54'0 0.0
2017-Apr-21 13:27N 43°06' E 005°54'0 0.0
2017-Apr-21 12:57N 43°06' E 005°54'0 0.0
2017-Apr-21 12:27N 43°06' E 005°54'0 0.0
2017-Apr-21 11:57N 43°06' E 005°54'0 0.0
2017-Apr-21 11:27N 43°06' E 005°54'0 0.0
2017-Apr-21 10:57N 43°06' E 005°54'0 0.0
2017-Apr-21 10:27N 43°06' E 005°54'0 0.0
2017-Apr-21 09:57N 43°06' E 005°54'0 0.0
2017-Apr-21 09:27N 43°06' E 005°54'0 0.0
2017-Apr-21 08:57N 43°06' E 005°54'0 0.0
2017-Apr-21 08:27N 43°06' E 005°54'0 0.0
2017-Apr-21 07:57N 43°06' E 005°54'0 0.0
2017-Apr-21 07:27N 43°06' E 005°54'0 0.0
2017-Apr-21 06:57N 43°06' E 005°54'0 0.0
2017-Apr-21 06:27N 43°06' E 005°54'0 0.0
2017-Apr-21 05:57N 43°06' E 005°54'0 0.3
2017-Apr-21 05:31N 43°06' E 005°54'1 2.5
2017-Apr-21 05:00N 43°05' E 005°55'4 7.4
2017-Apr-21 04:31N 43°04' E 006°00'40 5.1
2017-Apr-20 20:43N 43°02' E 006°55'2 8.0
2017-Apr-20 20:28N 43°03' E 006°57'4 8.2
2017-Apr-20 20:00N 43°06' E 006°60'4 8.1
2017-Apr-20 19:29N 43°09' E 007°04'4 8.1
2017-Apr-20 19:01N 43°12' E 007°07'4 8.0
2017-Apr-20 18:30N 43°15' E 007°11'4 8.3
2017-Apr-20 18:00N 43°18' E 007°15'4 8.1
2017-Apr-20 17:30N 43°22' E 007°16'4 8.1
2017-Apr-20 17:00N 43°26' E 007°17'4 7.7
2017-Apr-20 16:30N 43°30' E 007°17'4 8.0
2017-Apr-20 16:00N 43°34' E 007°18'4 8.2
2017-Apr-20 15:30N 43°38' E 007°18'3 6.6
2017-Apr-20 15:00N 43°42' E 007°19'0 0.2
2017-Apr-20 13:59N 43°42' E 007°19'0 0.1
2017-Apr-20 13:23N 43°42' E 007°19'0 0.0
2017-Apr-20 12:53N 43°42' E 007°19'0 0.0
2017-Apr-20 12:08N 43°42' E 007°19'0 0.2
2017-Apr-20 11:56N 43°42' E 007°19'0 0.0
2017-Apr-20 11:29N 43°42' E 007°19'0 0.0
2017-Apr-20 10:11N 43°42' E 007°19'0 0.2
2017-Apr-20 09:59N 43°42' E 007°19'0 0.1
2017-Apr-20 07:53N 43°42' E 007°19'0 0.0
2017-Apr-20 06:53N 43°42' E 007°19'0 0.0
2017-Apr-20 06:30N 43°42' E 007°19'1 1.1
2017-Apr-20 06:00N 43°41' E 007°19'3 6.0
2017-Apr-20 05:30N 43°39' E 007°22'4 8.9
2017-Apr-20 05:00N 43°39' E 007°28'611.2
2017-Apr-20 04:30N 43°39' E 007°36'611.9
2017-Apr-20 04:00N 43°38' E 007°44'612.5
2017-Apr-20 03:30N 43°38' E 007°53'612.3
2017-Apr-20 02:59N 43°37' E 008°02'611.9
2017-Apr-20 02:30N 43°37' E 008°10'611.6
2017-Apr-20 02:00N 43°37' E 008°18'611.5
2017-Apr-20 01:30N 43°36' E 008°26'611.6
2017-Apr-20 01:00N 43°36' E 008°33'611.6
2017-Apr-20 00:30N 43°36' E 008°41'611.7
2017-Apr-20 00:00N 43°35' E 008°49'611.5
2017-Apr-19 23:30N 43°35' E 008°57'611.4
2017-Apr-19 23:00N 43°35' E 009°05'611.4
2017-Apr-19 22:30N 43°34' E 009°13'611.3
2017-Apr-19 22:00N 43°34' E 009°21'611.3
2017-Apr-19 21:30N 43°33' E 009°29'611.6
2017-Apr-19 21:00N 43°33' E 009°37'611.5
2017-Apr-19 20:30N 43°33' E 009°45'611.2
2017-Apr-19 20:00N 43°32' E 009°52'510.9
2017-Apr-19 19:30N 43°31' E 009°60'511.0
2017-Apr-19 19:00N 43°30' E 010°07'611.4
2017-Apr-19 18:30N 43°32' E 010°15'3 5.0
2017-Apr-19 18:00N 43°33' E 010°18'0 0.0
2017-Apr-19 17:24N 43°33' E 010°18'0 0.0
2017-Apr-19 16:54N 43°33' E 010°18'0 0.0
2017-Apr-19 16:30N 43°33' E 010°18'0 0.0
2017-Apr-19 16:00N 43°33' E 010°18'0 0.0
2017-Apr-19 15:30N 43°33' E 010°18'0 0.0
2017-Apr-19 15:00N 43°33' E 010°18'0 0.0
2017-Apr-19 14:30N 43°33' E 010°18'0 0.0
2017-Apr-19 13:24N 43°33' E 010°18'0 0.0
2017-Apr-19 13:00N 43°33' E 010°18'0 0.0
2017-Apr-19 12:30N 43°33' E 010°18'0 0.0
2017-Apr-19 11:57N 43°33' E 010°18'0 0.0
2017-Apr-19 11:30N 43°33' E 010°18'0 0.0
2017-Apr-19 11:00N 43°33' E 010°18'0 0.0
2017-Apr-19 10:30N 43°33' E 010°18'0 0.0
2017-Apr-19 10:00N 43°33' E 010°18'0 0.0
2017-Apr-19 09:30N 43°33' E 010°18'0 0.0
2017-Apr-19 09:00N 43°33' E 010°18'0 0.0
2017-Apr-19 08:24N 43°33' E 010°18'0 0.0
2017-Apr-19 08:00N 43°33' E 010°18'0 0.0
2017-Apr-19 07:30N 43°33' E 010°18'0 0.0
2017-Apr-19 07:00N 43°33' E 010°18'0 0.7
2017-Apr-19 06:30N 43°33' E 010°17'4 7.2
2017-Apr-19 06:01N 43°30' E 010°15'714.0
2017-Apr-19 05:31N 43°23' E 010°11'714.3
2017-Apr-19 05:01N 43°17' E 010°07'714.4
2017-Apr-19 04:31N 43°10' E 010°04'714.6
2017-Apr-19 04:00N 43°03' E 010°01'714.5
2017-Apr-19 03:30N 42°56' E 009°58'1810.5
2017-Apr-19 01:48N 42°40' E 010°08'614.3
2017-Apr-19 01:22N 42°35' E 010°14'1114.4
2017-Apr-19 00:37N 42°27' E 010°23'214.7
2017-Apr-19 00:30N 42°26' E 010°24'  
2017-Apr-15 19:55N 41°17' E 003°20'716.0
2017-Apr-15 19:29N 41°17' E 003°10'715.6
2017-Apr-15 19:00N 41°17' E 003°01'815.8
2017-Apr-15 18:30N 41°17' E 002°50'816.2
2017-Apr-15 18:00N 41°16' E 002°39'1016.5
2017-Apr-15 17:25N 41°16' E 002°27'716.6
2017-Apr-15 17:00N 41°16' E 002°17'611.4
2017-Apr-15 16:29N 41°18' E 002°10'3 2.0
2017-Apr-15 14:51N 41°22' E 002°11'0 0.0
2017-Apr-15 13:45N 41°22' E 002°11'0 0.0
2017-Apr-15 12:39N 41°22' E 002°11'0 0.0
2017-Apr-15 12:27N 41°22' E 002°11'0 0.0
2017-Apr-15 12:00N 41°22' E 002°11'0 0.0
2017-Apr-15 11:30N 41°22' E 002°11'0 0.0
2017-Apr-15 10:57N 41°22' E 002°11'0 0.0
2017-Apr-15 09:57N 41°22' E 002°11'0 0.0
2017-Apr-15 08:54N 41°22' E 002°11'0 0.0
2017-Apr-15 08:30N 41°22' E 002°11'0 0.0
2017-Apr-15 08:00N 41°22' E 002°11'0 0.0
2017-Apr-15 07:30N 41°22' E 002°11'0 0.0
2017-Apr-15 06:57N 41°22' E 002°11'0 0.4
2017-Apr-15 06:30N 41°22' E 002°11'5 6.5
2017-Apr-15 05:40N 41°16' E 002°12'313.2
2017-Apr-15 05:27N 41°16' E 002°16'613.0
2017-Apr-15 05:00N 41°16' E 002°23'713.4
2017-Apr-15 04:30N 41°16' E 002°32'713.1
2017-Apr-15 04:00N 41°18' E 002°41'713.8
2017-Apr-15 03:30N 41°22' E 002°48'713.7
2017-Apr-15 03:00N 41°26' E 002°56'713.8
2017-Apr-15 02:30N 41°30' E 003°03'815.9
2017-Apr-15 02:00N 41°35' E 003°12'1216.2
2017-Apr-15 01:16N 41°41' E 003°25'5815.8
2017-Apr-14 21:36N 42°15' E 004°29'715.5
2017-Apr-14 21:09N 42°19' E 004°37'  
Track history (hours):
 
Tides and Currents Weather Stations Pressure Air Temp Water Temp Dewpoint Dewpoint Depression Visibility Wind Speed Wind Dir Waves Ship Positions

Sovereign

Last reported at 2017-Apr-24 20:32 UTC. Time now 2017-Apr-25 12:31 UTC.
Position N 40°42' E 013°25'.

Length 269 m; draft 7.8 m.

Type: Passenger vessel. MMSI: 249539000.

Date/timePositionNaut miles runAvg speedWind from/ knotsBaromVisibWave heightAir tempDewpointWater temp
2017-Apr-24 20:32N 40°42' E 013°25'014.2
2017-Apr-24 20:30N 40°42' E 013°26'714.2
2017-Apr-24 20:00N 40°40' E 013°35'814.3
2017-Apr-24 19:28N 40°38' E 013°45'714.5
2017-Apr-24 19:00N 40°38' E 013°54'21 2.7
2017-Apr-24 11:21N 40°50' E 014°15'42212.0
2017-Apr-23 00:06N 41°18' E 004°57'4916.8
2017-Apr-22 21:12N 41°17' E 003°52'1416.5
2017-Apr-22 20:23N 41°17' E 003°34'1816.5
2017-Apr-22 19:18N 41°17' E 003°10'1616.5
2017-Apr-22 18:19N 41°17' E 002°49'516.4
2017-Apr-22 18:00N 41°16' E 002°42'916.4
2017-Apr-22 17:28N 41°15' E 002°31'816.5
2017-Apr-22 17:00N 41°15' E 002°20'814.5
2017-Apr-22 16:28N 41°17' E 002°11'4 9.0
2017-Apr-22 16:00N 41°22' E 002°11'0 0.2
2017-Apr-22 15:29N 41°22' E 002°11'0 0.0
2017-Apr-22 14:14N 41°22' E 002°11'0 0.0
2017-Apr-22 13:14N 41°22' E 002°11'0 0.0
2017-Apr-22 12:59N 41°22' E 002°11'0 0.0
2017-Apr-22 12:29N 41°22' E 002°11'0 0.0
2017-Apr-22 11:59N 41°22' E 002°11'0 0.0
2017-Apr-22 11:26N 41°22' E 002°11'0 0.0
2017-Apr-22 10:47N 41°22' E 002°11'0 0.0
2017-Apr-22 09:44N 41°22' E 002°11'0 0.0
2017-Apr-22 07:02N 41°22' E 002°11'0 0.1
2017-Apr-22 06:48N 41°22' E 002°11'0 0.3
2017-Apr-22 06:30N 41°22' E 002°11'5 6.7
2017-Apr-22 05:43N 41°17' E 002°12'414.8
2017-Apr-22 05:26N 41°16' E 002°17'716.0
2017-Apr-22 04:59N 41°17' E 002°27'1215.3
2017-Apr-22 04:14N 41°21' E 002°41'4314.3
2017-Apr-22 01:12N 41°44' E 003°30'414.6
2017-Apr-22 00:54N 41°47' E 003°35'3213.9
2017-Apr-21 22:35N 42°05' E 004°10'3313.8
2017-Apr-21 20:11N 42°24' E 004°47'3215.8
2017-Apr-21 18:11N 42°42' E 005°22'3414.2
2017-Apr-21 15:48N 43°05' E 005°56'2 6.3
2017-Apr-21 15:30N 43°06' E 005°54'0 0.3
2017-Apr-21 14:57N 43°06' E 005°54'0 0.0
2017-Apr-21 14:27N 43°06' E 005°54'0 0.0
2017-Apr-21 13:27N 43°06' E 005°54'0 0.0
2017-Apr-21 12:57N 43°06' E 005°54'0 0.0
2017-Apr-21 12:27N 43°06' E 005°54'0 0.0
2017-Apr-21 11:57N 43°06' E 005°54'0 0.0
2017-Apr-21 11:27N 43°06' E 005°54'0 0.0
2017-Apr-21 10:57N 43°06' E 005°54'0 0.0
2017-Apr-21 10:27N 43°06' E 005°54'0 0.0
2017-Apr-21 09:57N 43°06' E 005°54'0 0.0
2017-Apr-21 09:27N 43°06' E 005°54'0 0.0
2017-Apr-21 08:57N 43°06' E 005°54'0 0.0
2017-Apr-21 08:27N 43°06' E 005°54'0 0.0
2017-Apr-21 07:57N 43°06' E 005°54'0 0.0
2017-Apr-21 07:27N 43°06' E 005°54'0 0.0
2017-Apr-21 06:57N 43°06' E 005°54'0 0.0
2017-Apr-21 06:27N 43°06' E 005°54'0 0.0
2017-Apr-21 05:57N 43°06' E 005°54'0 0.3
2017-Apr-21 05:31N 43°06' E 005°54'1 2.5
2017-Apr-21 05:00N 43°05' E 005°55'4 7.4
2017-Apr-21 04:31N 43°04' E 006°00'40 5.1
2017-Apr-20 20:43N 43°02' E 006°55'2 8.0
2017-Apr-20 20:28N 43°03' E 006°57'4 8.2
2017-Apr-20 20:00N 43°06' E 006°60'4 8.1
2017-Apr-20 19:29N 43°09' E 007°04'4 8.1
2017-Apr-20 19:01N 43°12' E 007°07'4 8.0
2017-Apr-20 18:30N 43°15' E 007°11'4 8.3
2017-Apr-20 18:00N 43°18' E 007°15'4 8.1
2017-Apr-20 17:30N 43°22' E 007°16'4 8.1
2017-Apr-20 17:00N 43°26' E 007°17'4 7.7
2017-Apr-20 16:30N 43°30' E 007°17'4 8.0
2017-Apr-20 16:00N 43°34' E 007°18'4 8.2
2017-Apr-20 15:30N 43°38' E 007°18'3 6.6
2017-Apr-20 15:00N 43°42' E 007°19'0 0.2
2017-Apr-20 13:59N 43°42' E 007°19'0 0.1
2017-Apr-20 13:23N 43°42' E 007°19'0 0.0
2017-Apr-20 12:53N 43°42' E 007°19'0 0.0
2017-Apr-20 12:08N 43°42' E 007°19'0 0.2
2017-Apr-20 11:56N 43°42' E 007°19'0 0.0
2017-Apr-20 11:29N 43°42' E 007°19'0 0.0
2017-Apr-20 10:11N 43°42' E 007°19'0 0.2
2017-Apr-20 09:59N 43°42' E 007°19'0 0.1
2017-Apr-20 07:53N 43°42' E 007°19'0 0.0
2017-Apr-20 06:53N 43°42' E 007°19'0 0.0
2017-Apr-20 06:30N 43°42' E 007°19'1 1.1
2017-Apr-20 06:00N 43°41' E 007°19'3 6.0
2017-Apr-20 05:30N 43°39' E 007°22'4 8.9
2017-Apr-20 05:00N 43°39' E 007°28'611.2
2017-Apr-20 04:30N 43°39' E 007°36'611.9
2017-Apr-20 04:00N 43°38' E 007°44'612.5
2017-Apr-20 03:30N 43°38' E 007°53'612.3
2017-Apr-20 02:59N 43°37' E 008°02'611.9
2017-Apr-20 02:30N 43°37' E 008°10'611.6
2017-Apr-20 02:00N 43°37' E 008°18'611.5
2017-Apr-20 01:30N 43°36' E 008°26'611.6
2017-Apr-20 01:00N 43°36' E 008°33'611.6
2017-Apr-20 00:30N 43°36' E 008°41'611.7
2017-Apr-20 00:00N 43°35' E 008°49'611.5
2017-Apr-19 23:30N 43°35' E 008°57'611.4
2017-Apr-19 23:00N 43°35' E 009°05'611.4
2017-Apr-19 22:30N 43°34' E 009°13'611.3
2017-Apr-19 22:00N 43°34' E 009°21'611.3
2017-Apr-19 21:30N 43°33' E 009°29'611.6
2017-Apr-19 21:00N 43°33' E 009°37'611.5
2017-Apr-19 20:30N 43°33' E 009°45'611.2
2017-Apr-19 20:00N 43°32' E 009°52'510.9
2017-Apr-19 19:30N 43°31' E 009°60'511.0
2017-Apr-19 19:00N 43°30' E 010°07'611.4
2017-Apr-19 18:30N 43°32' E 010°15'3 5.0
2017-Apr-19 18:00N 43°33' E 010°18'0 0.0
2017-Apr-19 17:24N 43°33' E 010°18'0 0.0
2017-Apr-19 16:54N 43°33' E 010°18'0 0.0
2017-Apr-19 16:30N 43°33' E 010°18'0 0.0
2017-Apr-19 16:00N 43°33' E 010°18'0 0.0
2017-Apr-19 15:30N 43°33' E 010°18'0 0.0
2017-Apr-19 15:00N 43°33' E 010°18'0 0.0
2017-Apr-19 14:30N 43°33' E 010°18'0 0.0
2017-Apr-19 13:24N 43°33' E 010°18'0 0.0
2017-Apr-19 13:00N 43°33' E 010°18'0 0.0
2017-Apr-19 12:30N 43°33' E 010°18'0 0.0
2017-Apr-19 11:57N 43°33' E 010°18'0 0.0
2017-Apr-19 11:30N 43°33' E 010°18'0 0.0
2017-Apr-19 11:00N 43°33' E 010°18'0 0.0
2017-Apr-19 10:30N 43°33' E 010°18'0 0.0
2017-Apr-19 10:00N 43°33' E 010°18'0 0.0
2017-Apr-19 09:30N 43°33' E 010°18'0 0.0
2017-Apr-19 09:00N 43°33' E 010°18'0 0.0
2017-Apr-19 08:24N 43°33' E 010°18'0 0.0
2017-Apr-19 08:00N 43°33' E 010°18'0 0.0
2017-Apr-19 07:30N 43°33' E 010°18'0 0.0
2017-Apr-19 07:00N 43°33' E 010°18'0 0.7
2017-Apr-19 06:30N 43°33' E 010°17'4 7.2
2017-Apr-19 06:01N 43°30' E 010°15'714.0
2017-Apr-19 05:31N 43°23' E 010°11'714.3
2017-Apr-19 05:01N 43°17' E 010°07'714.4
2017-Apr-19 04:31N 43°10' E 010°04'714.6
2017-Apr-19 04:00N 43°03' E 010°01'714.5
2017-Apr-19 03:30N 42°56' E 009°58'1810.5
2017-Apr-19 01:48N 42°40' E 010°08'614.3
2017-Apr-19 01:22N 42°35' E 010°14'1114.4
2017-Apr-19 00:37N 42°27' E 010°23'214.7
2017-Apr-19 00:30N 42°26' E 010°24'  
2017-Apr-15 19:55N 41°17' E 003°20'716.0
2017-Apr-15 19:29N 41°17' E 003°10'715.6
2017-Apr-15 19:00N 41°17' E 003°01'815.8
2017-Apr-15 18:30N 41°17' E 002°50'816.2
2017-Apr-15 18:00N 41°16' E 002°39'1016.5
2017-Apr-15 17:25N 41°16' E 002°27'716.6
2017-Apr-15 17:00N 41°16' E 002°17'611.4
2017-Apr-15 16:29N 41°18' E 002°10'3 2.0
2017-Apr-15 14:51N 41°22' E 002°11'0 0.0
2017-Apr-15 13:45N 41°22' E 002°11'0 0.0
2017-Apr-15 12:39N 41°22' E 002°11'0 0.0
2017-Apr-15 12:27N 41°22' E 002°11'0 0.0
2017-Apr-15 12:00N 41°22' E 002°11'0 0.0
2017-Apr-15 11:30N 41°22' E 002°11'0 0.0
2017-Apr-15 10:57N 41°22' E 002°11'0 0.0
2017-Apr-15 09:57N 41°22' E 002°11'0 0.0
2017-Apr-15 08:54N 41°22' E 002°11'0 0.0
2017-Apr-15 08:30N 41°22' E 002°11'0 0.0
2017-Apr-15 08:00N 41°22' E 002°11'0 0.0
2017-Apr-15 07:30N 41°22' E 002°11'0 0.0
2017-Apr-15 06:57N 41°22' E 002°11'0 0.4
2017-Apr-15 06:30N 41°22' E 002°11'5 6.5
2017-Apr-15 05:40N 41°16' E 002°12'313.2
2017-Apr-15 05:27N 41°16' E 002°16'613.0
2017-Apr-15 05:00N 41°16' E 002°23'713.4
2017-Apr-15 04:30N 41°16' E 002°32'713.1
2017-Apr-15 04:00N 41°18' E 002°41'713.8
2017-Apr-15 03:30N 41°22' E 002°48'713.7
2017-Apr-15 03:00N 41°26' E 002°56'713.8
2017-Apr-15 02:30N 41°30' E 003°03'815.9
2017-Apr-15 02:00N 41°35' E 003°12'1216.2
2017-Apr-15 01:16N 41°41' E 003°25'5815.8
2017-Apr-14 21:36N 42°15' E 004°29'715.5
2017-Apr-14 21:09N 42°19' E 004°37'  

Dump ship's entire track history